Time;durP1;ratioP1;P1;durP2;ratioP2;P2;SDS_P1;SDS_P2;PMS_P1;PMS_P2;Temp;Humidity;BMP_temperature;BMP_pressure;BME280_temperature;BME280_humidity;BME280_pressure;Samples;Min_cycle;Max_cycle;Signal;HPM_P1;HPM_P2
2023/08/30 00:01:01;;;;;;;0.88;0.85;;;21.60;56.60;;;;;;5148441;27;45433;-71
2023/08/30 00:03:29;;;;;;;0.80;0.80;;;21.60;56.60;;;;;;5148215;27;45310;-73
2023/08/30 00:05:56;;;;;;;1.75;0.90;;;21.60;56.60;;;;;;5147910;27;45438;-71
2023/08/30 00:08:23;;;;;;;0.90;0.90;;;21.60;56.60;;;;;;5148097;27;45337;-71
2023/08/30 00:10:49;;;;;;;0.80;0.80;;;21.60;56.60;;;;;;5147996;27;45328;-71
2023/08/30 00:13:16;;;;;;;0.70;0.70;;;21.60;56.70;;;;;;5148133;27;45386;-71
2023/08/30 00:15:43;;;;;;;0.98;0.98;;;21.60;56.60;;;;;;5147764;27;45249;-71
2023/08/30 00:18:10;;;;;;;1.48;0.93;;;21.60;56.60;;;;;;5147711;27;45374;-71
2023/08/30 00:20:38;;;;;;;1.10;1.00;;;21.50;56.60;;;;;;5147663;27;45449;-71
2023/08/30 00:23:05;;;;;;;0.77;0.77;;;21.50;56.60;;;;;;5148384;27;45328;-72
2023/08/30 00:25:32;;;;;;;0.95;0.95;;;21.50;56.60;;;;;;5149623;27;46475;-73
2023/08/30 00:27:59;;;;;;;0.80;0.80;;;21.50;56.50;;;;;;5151830;27;45283;-72
2023/08/30 00:30:26;;;;;;;0.88;0.88;;;21.50;56.50;;;;;;5151692;27;45456;-72
2023/08/30 00:32:53;;;;;;;0.88;0.88;;;21.50;56.50;;;;;;5151975;27;45489;-73
2023/08/30 00:35:20;;;;;;;0.98;0.98;;;21.50;56.60;;;;;;5151501;27;46403;-72
2023/08/30 00:37:48;;;;;;;0.88;0.88;;;21.50;56.60;;;;;;5150862;27;45314;-73
2023/08/30 00:40:15;;;;;;;0.90;0.90;;;21.40;56.50;;;;;;5151520;27;45292;-73
2023/08/30 00:42:42;;;;;;;1.00;1.00;;;21.40;56.50;;;;;;5151872;27;45524;-72
2023/08/30 00:45:09;;;;;;;0.80;0.80;;;21.40;56.50;;;;;;5151540;27;47266;-73
2023/08/30 00:47:36;;;;;;;0.80;0.80;;;21.40;56.50;;;;;;5151500;27;45313;-72
2023/08/30 00:50:03;;;;;;;1.00;1.00;;;21.40;56.50;;;;;;5151523;27;45256;-72
2023/08/30 00:52:30;;;;;;;0.70;0.70;;;21.40;56.50;;;;;;5151485;27;45406;-72
2023/08/30 00:54:58;;;;;;;0.80;0.80;;;21.40;56.50;;;;;;5150788;27;47504;-72
2023/08/30 00:57:25;;;;;;;0.70;0.70;;;21.40;56.50;;;;;;5150489;27;45500;-72
2023/08/30 00:59:52;;;;;;;0.90;0.90;;;21.40;56.60;;;;;;5151712;27;45401;-73
2023/08/30 01:02:19;;;;;;;0.80;0.80;;;21.30;56.50;;;;;;5151674;27;45323;-72
2023/08/30 01:04:46;;;;;;;0.80;0.80;;;21.30;56.40;;;;;;5150655;27;46382;-72
2023/08/30 01:07:13;;;;;;;0.75;0.75;;;21.30;56.50;;;;;;5150905;27;45422;-71
2023/08/30 01:09:40;;;;;;;1.10;0.70;;;21.30;56.50;;;;;;5150889;27;45274;-72
2023/08/30 01:12:11;;;;;;;0.80;0.80;;;21.30;56.50;;;;;;5151036;27;45494;-72
2023/08/30 01:14:40;;;;;;;0.90;0.90;;;21.30;56.50;;;;;;5150545;27;47345;-71
2023/08/30 01:17:07;;;;;;;0.60;0.60;;;21.30;56.40;;;;;;5150484;27;45413;-71
2023/08/30 01:19:41;;;;;;;1.60;0.82;;;21.30;56.40;;;;;;5149684;27;45326;-71
2023/08/30 01:22:12;;;;;;;0.85;0.85;;;21.30;57.00;;;;;;5149742;27;45423;-71
2023/08/30 01:24:42;;;;;;;0.88;0.88;;;21.30;56.50;;;;;;5150157;27;46404;-70
2023/08/30 01:27:11;;;;;;;1.42;0.80;;;21.20;56.40;;;;;;5150274;27;45335;-71
2023/08/30 01:29:39;;;;;;;1.85;0.90;;;21.20;56.40;;;;;;5147332;27;45363;-71
2023/08/30 01:32:06;;;;;;;0.90;0.90;;;21.20;56.40;;;;;;5150528;27;45432;-71
2023/08/30 01:34:34;;;;;;;0.70;0.70;;;21.20;56.40;;;;;;5149878;27;46948;-71
2023/08/30 01:37:01;;;;;;;1.27;0.82;;;21.20;56.40;;;;;;5149446;27;45326;-70
2023/08/30 01:39:28;;;;;;;0.70;0.70;;;21.20;56.40;;;;;;5150502;27;45452;-71
2023/08/30 01:41:58;;;;;;;0.80;0.80;;;21.20;56.40;;;;;;5150363;27;45429;-71
2023/08/30 01:44:27;;;;;;;0.90;0.90;;;21.20;56.40;;;;;;5150169;27;45437;-72
2023/08/30 01:46:53;;;;;;;0.70;0.68;;;21.20;56.40;;;;;;5150053;27;45462;-71
2023/08/30 01:49:21;;;;;;;0.98;0.93;;;21.20;56.40;;;;;;5150469;27;45418;-71
2023/08/30 01:51:48;;;;;;;0.70;0.70;;;21.10;56.40;;;;;;5150265;27;45298;-71
2023/08/30 01:54:15;;;;;;;0.90;0.90;;;21.10;56.40;;;;;;5149445;27;46377;-71
2023/08/30 01:56:42;;;;;;;0.80;0.80;;;21.10;56.40;;;;;;5149544;27;45255;-71
2023/08/30 01:59:08;;;;;;;0.80;0.80;;;21.10;56.40;;;;;;5149578;27;45382;-71
2023/08/30 02:01:37;;;;;;;0.60;0.60;;;21.10;56.40;;;;;;5150305;27;45308;-70
2023/08/30 02:04:04;;;;;;;0.77;0.70;;;21.10;56.40;;;;;;5149664;27;45331;-71
2023/08/30 02:06:33;;;;;;;0.80;0.80;;;21.00;56.30;;;;;;5149948;27;45361;-71
2023/08/30 02:09:02;;;;;;;0.80;0.80;;;21.00;56.40;;;;;;5149866;27;45499;-71
2023/08/30 02:11:29;;;;;;;0.80;0.80;;;21.00;56.30;;;;;;5149866;27;45404;-71
2023/08/30 02:13:58;;;;;;;0.70;0.70;;;21.00;56.30;;;;;;5149203;27;45539;-71
2023/08/30 02:16:25;;;;;;;1.05;0.77;;;21.00;56.40;;;;;;5149503;27;45374;-70
2023/08/30 02:18:54;;;;;;;0.63;0.63;;;21.00;56.30;;;;;;5149359;27;45403;-71
2023/08/30 02:21:20;;;;;;;0.80;0.80;;;21.00;56.40;;;;;;5149609;27;45462;-70
2023/08/30 02:23:50;;;;;;;0.60;0.60;;;21.00;56.40;;;;;;5149303;27;45455;-71
2023/08/30 02:26:19;;;;;;;0.95;0.80;;;21.00;56.40;;;;;;5149007;27;45461;-71
2023/08/30 02:28:45;;;;;;;0.73;0.73;;;21.00;56.30;;;;;;5149291;27;45264;-71
2023/08/30 02:31:12;;;;;;;1.35;0.90;;;20.90;56.30;;;;;;5149380;27;45441;-71
2023/08/30 02:33:39;;;;;;;0.68;0.68;;;20.90;56.30;;;;;;5149115;27;46344;-71
2023/08/30 02:36:08;;;;;;;1.02;0.90;;;20.90;56.30;;;;;;5148954;27;45501;-71
2023/08/30 02:38:35;;;;;;;0.77;0.77;;;20.90;56.30;;;;;;5149220;27;45322;-71
2023/08/30 02:41:01;;;;;;;0.90;0.90;;;20.90;56.30;;;;;;5149335;27;45325;-71
2023/08/30 02:43:28;;;;;;;0.90;0.90;;;20.90;56.30;;;;;;5148578;27;45743;-71
2023/08/30 02:45:56;;;;;;;0.70;0.70;;;20.90;56.90;;;;;;5148531;27;45406;-70
2023/08/30 02:48:23;;;;;;;0.95;0.95;;;20.90;56.30;;;;;;5147006;27;45516;-71
2023/08/30 02:50:49;;;;;;;1.52;0.80;;;20.90;56.30;;;;;;5148996;27;45317;-71
2023/08/30 02:53:18;;;;;;;1.23;0.90;;;20.90;56.30;;;;;;5148669;27;46383;-72
2023/08/30 02:55:45;;;;;;;0.93;0.93;;;20.80;56.30;;;;;;5148568;27;45398;-72
2023/08/30 02:58:11;;;;;;;1.00;0.90;;;20.80;56.30;;;;;;5148972;27;45418;-72
2023/08/30 03:00:38;;;;;;;1.08;0.63;;;20.80;56.30;;;;;;5149035;27;45635;-71
2023/08/30 03:03:05;;;;;;;1.08;0.88;;;20.80;56.20;;;;;;5148649;27;45276;-71
2023/08/30 03:05:32;;;;;;;0.70;0.70;;;20.80;56.20;;;;;;5148623;27;45332;-72
2023/08/30 03:07:59;;;;;;;0.82;0.82;;;20.80;56.30;;;;;;5148640;27;45313;-71
2023/08/30 03:10:27;;;;;;;0.60;0.60;;;20.80;56.20;;;;;;5148783;27;44827;-71
2023/08/30 03:12:54;;;;;;;0.82;0.82;;;20.80;56.20;;;;;;5148189;27;46699;-72
2023/08/30 03:15:21;;;;;;;1.85;0.80;;;20.80;56.20;;;;;;5148390;27;45276;-72
2023/08/30 03:17:48;;;;;;;0.70;0.70;;;20.80;56.20;;;;;;5148791;27;45331;-71
2023/08/30 03:20:15;;;;;;;0.63;0.63;;;20.80;56.20;;;;;;5148516;27;45421;-71
2023/08/30 03:22:42;;;;;;;1.00;0.90;;;20.70;56.20;;;;;;5148143;27;46695;-71
2023/08/30 03:25:09;;;;;;;0.95;0.75;;;20.70;56.20;;;;;;5148182;27;45294;-70
2023/08/30 03:27:38;;;;;;;0.82;0.82;;;20.70;56.20;;;;;;5148204;27;45306;-71
2023/08/30 03:30:06;;;;;;;2.20;0.75;;;20.70;56.20;;;;;;5147770;27;45355;-71
2023/08/30 03:32:33;;;;;;;0.88;0.70;;;20.70;56.20;;;;;;5147565;27;47280;-71
2023/08/30 03:35:00;;;;;;;0.60;0.60;;;20.70;56.20;;;;;;5147973;27;45332;-70
2023/08/30 03:37:27;;;;;;;0.70;0.70;;;20.70;56.30;;;;;;5148074;27;45264;-70
2023/08/30 03:39:54;;;;;;;4.00;0.90;;;20.70;56.20;;;;;;5148325;27;45396;-71
2023/08/30 03:42:20;;;;;;;0.80;0.80;;;20.70;56.30;;;;;;5148213;27;48391;-71
2023/08/30 03:44:49;;;;;;;1.02;1.00;;;20.60;56.10;;;;;;5148975;27;45319;-71
2023/08/30 03:47:15;;;;;;;0.90;0.90;;;20.70;56.20;;;;;;5148716;27;45267;-71
2023/08/30 03:49:42;;;;;;;0.80;0.80;;;20.60;56.20;;;;;;5148745;27;45318;-71
2023/08/30 03:52:09;;;;;;;0.95;0.88;;;20.60;56.20;;;;;;5148129;27;45397;-71
2023/08/30 03:54:36;;;;;;;0.52;0.52;;;20.60;56.20;;;;;;5147419;27;45451;-71
2023/08/30 03:57:03;;;;;;;0.80;0.80;;;20.60;56.20;;;;;;5148053;27;45367;-71
2023/08/30 03:59:30;;;;;;;0.95;0.95;;;20.60;56.20;;;;;;5147853;27;45299;-71
2023/08/30 04:01:58;;;;;;;0.80;0.80;;;20.60;56.20;;;;;;5147689;27;46964;-71
2023/08/30 04:04:25;;;;;;;1.38;0.88;;;20.60;56.20;;;;;;5147532;27;45303;-71
2023/08/30 04:06:52;;;;;;;0.70;0.70;;;20.60;56.20;;;;;;5147868;27;45406;-72
2023/08/30 04:09:19;;;;;;;1.27;0.80;;;20.50;56.10;;;;;;5147825;27;45469;-71
2023/08/30 04:11:46;;;;;;;0.80;0.80;;;20.50;56.10;;;;;;5147503;27;46410;-71
2023/08/30 04:14:13;;;;;;;0.70;0.70;;;20.50;56.20;;;;;;5146842;27;45315;-71
2023/08/30 04:16:39;;;;;;;1.27;0.60;;;20.50;56.10;;;;;;5148415;27;45401;-71
2023/08/30 04:19:07;;;;;;;0.70;0.70;;;20.50;56.10;;;;;;5147866;27;45401;-72
2023/08/30 04:21:35;;;;;;;0.80;0.80;;;20.50;56.10;;;;;;5147575;27;47363;-71
2023/08/30 04:24:02;;;;;;;0.80;0.80;;;20.50;56.10;;;;;;5147385;27;45269;-73
2023/08/30 04:26:29;;;;;;;0.70;0.70;;;20.50;56.20;;;;;;5148117;27;45252;-72
2023/08/30 04:28:56;;;;;;;0.70;0.70;;;20.50;56.10;;;;;;5147853;27;45438;-72
2023/08/30 04:31:23;;;;;;;0.90;0.70;;;20.50;56.10;;;;;;5147212;27;46388;-71
2023/08/30 04:33:52;;;;;;;0.80;0.80;;;20.50;56.10;;;;;;5147196;27;45441;-71
2023/08/30 04:36:20;;;;;;;0.63;0.63;;;20.50;56.10;;;;;;5147757;27;45351;-72
2023/08/30 04:38:47;;;;;;;0.80;0.80;;;20.50;56.10;;;;;;5147713;27;45404;-71
2023/08/30 04:41:14;;;;;;;1.13;0.73;;;20.40;56.00;;;;;;5147187;27;45405;-71
2023/08/30 04:43:41;;;;;;;0.70;0.70;;;20.50;56.10;;;;;;5147311;27;45314;-71
2023/08/30 04:46:08;;;;;;;0.60;0.60;;;20.40;56.00;;;;;;5147883;27;45352;-71
2023/08/30 04:48:35;;;;;;;0.70;0.70;;;20.40;56.00;;;;;;5147598;27;45402;-72
2023/08/30 04:51:02;;;;;;;0.60;0.60;;;20.40;56.00;;;;;;5147044;27;46740;-72
2023/08/30 04:53:31;;;;;;;0.80;0.80;;;20.40;56.00;;;;;;5147089;27;45388;-72
2023/08/30 04:55:57;;;;;;;0.80;0.80;;;20.40;56.00;;;;;;5147548;27;45262;-72
2023/08/30 04:58:24;;;;;;;0.77;0.77;;;20.40;56.00;;;;;;5146540;27;45245;-72
2023/08/30 05:00:51;;;;;;;1.45;0.82;;;20.40;56.10;;;;;;5146756;27;46395;-72
2023/08/30 05:03:18;;;;;;;0.75;0.75;;;20.40;56.00;;;;;;5147102;27;45478;-72
2023/08/30 05:05:47;;;;;;;0.80;0.80;;;20.40;56.00;;;;;;5147250;27;45370;-72
2023/08/30 05:08:13;;;;;;;0.80;0.80;;;20.40;56.00;;;;;;5147226;27;45363;-72
2023/08/30 05:10:42;;;;;;;0.60;0.60;;;20.40;56.00;;;;;;5146715;27;46382;-71
2023/08/30 05:13:10;;;;;;;0.70;0.70;;;20.40;56.10;;;;;;5149485;27;45351;-71
2023/08/30 05:15:37;;;;;;;0.68;0.68;;;20.40;56.10;;;;;;5151679;27;45401;-71
2023/08/30 05:18:04;;;;;;;0.60;0.60;;;20.30;56.00;;;;;;5151945;27;45266;-71
2023/08/30 05:20:31;;;;;;;0.90;0.90;;;20.40;56.00;;;;;;5150348;27;45464;-71
2023/08/30 05:22:58;;;;;;;0.68;0.68;;;20.40;56.00;;;;;;5150032;27;45355;-71
2023/08/30 05:25:25;;;;;;;0.82;0.55;;;20.40;56.00;;;;;;5150102;27;45516;-71
2023/08/30 05:27:53;;;;;;;1.67;0.70;;;20.40;56.00;;;;;;5150508;27;45257;-71
2023/08/30 05:30:20;;;;;;;0.70;0.68;;;20.40;56.00;;;;;;5149739;27;45297;-72
2023/08/30 05:32:49;;;;;;;0.73;0.73;;;20.40;56.00;;;;;;5149851;27;45396;-72
2023/08/30 05:35:16;;;;;;;0.80;0.80;;;20.40;56.00;;;;;;5147496;27;45347;-71
2023/08/30 05:37:43;;;;;;;0.70;0.70;;;20.40;56.00;;;;;;5150283;27;45340;-72
2023/08/30 05:40:10;;;;;;;0.75;0.75;;;20.40;56.00;;;;;;5149965;27;46404;-72
2023/08/30 05:42:37;;;;;;;1.25;0.82;;;20.40;55.90;;;;;;5149134;27;45430;-71
2023/08/30 05:45:07;;;;;;;0.65;0.65;;;20.40;55.90;;;;;;5149801;27;45358;-71
2023/08/30 05:47:34;;;;;;;0.70;0.70;;;20.40;56.00;;;;;;5150148;27;45452;-72
2023/08/30 05:50:01;;;;;;;0.60;0.60;;;20.40;55.90;;;;;;5149519;27;47327;-72
2023/08/30 05:52:27;;;;;;;0.70;0.70;;;20.40;56.00;;;;;;5149654;27;45385;-71
2023/08/30 05:54:54;;;;;;;0.73;0.70;;;20.40;55.90;;;;;;5149978;27;45376;-71
2023/08/30 05:57:23;;;;;;;0.80;0.80;;;20.40;55.90;;;;;;5149623;27;45410;-71
2023/08/30 05:59:50;;;;;;;0.68;0.68;;;20.40;56.00;;;;;;5149649;27;46633;-71
2023/08/30 06:02:18;;;;;;;0.80;0.80;;;20.40;56.00;;;;;;5149557;27;45377;-72
2023/08/30 06:04:45;;;;;;;0.90;0.90;;;20.40;55.90;;;;;;5149757;27;45409;-72
2023/08/30 06:07:12;;;;;;;1.33;0.70;;;20.40;55.90;;;;;;5149703;27;45549;-72
2023/08/30 06:09:39;;;;;;;0.70;0.70;;;20.40;55.90;;;;;;5149640;27;45486;-72
2023/08/30 06:12:07;;;;;;;0.57;0.57;;;20.40;55.80;;;;;;5149370;27;45327;-72
2023/08/30 06:14:34;;;;;;;1.02;0.68;;;20.40;55.80;;;;;;5149481;27;45326;-71
2023/08/30 06:17:01;;;;;;;1.23;0.80;;;20.50;55.90;;;;;;5149709;27;45440;-71
2023/08/30 06:19:29;;;;;;;0.93;0.93;;;20.50;55.90;;;;;;5149208;27;47309;-72
2023/08/30 06:21:56;;;;;;;0.80;0.80;;;20.50;55.80;;;;;;5146672;27;45338;-72
2023/08/30 06:24:23;;;;;;;1.17;0.70;;;20.50;55.80;;;;;;5149126;27;45397;-72
2023/08/30 06:26:50;;;;;;;0.65;0.65;;;20.50;55.80;;;;;;5148865;27;45401;-71
2023/08/30 06:29:17;;;;;;;1.17;1.00;;;20.50;55.80;;;;;;5148732;27;45595;-73
2023/08/30 06:31:45;;;;;;;0.70;0.70;;;20.50;55.80;;;;;;5149149;27;45302;-72
2023/08/30 06:34:12;;;;;;;2.25;0.90;;;20.50;55.80;;;;;;5142785;27;45354;-72
2023/08/30 06:36:40;;;;;;;0.88;0.70;;;20.50;55.80;;;;;;5146656;27;45484;-73
2023/08/30 06:39:07;;;;;;;0.75;0.75;;;20.50;55.70;;;;;;5146843;27;47328;-74
2023/08/30 06:41:34;;;;;;;3.03;1.00;;;20.50;56.00;;;;;;5145123;27;45602;-72
2023/08/30 06:44:01;;;;;;;0.70;0.70;;;20.50;55.80;;;;;;5144260;27;45383;-71
2023/08/30 06:46:27;;;;;;;1.48;0.77;;;20.60;56.00;;;;;;5143341;27;45520;-78
2023/08/30 06:48:54;;;;;;;1.10;0.90;;;20.60;56.10;;;;;;5143174;27;45344;-75
2023/08/30 06:51:21;;;;;;;2.83;0.85;;;20.60;56.00;;;;;;5136009;27;45354;-73
2023/08/30 06:53:49;;;;;;;0.73;0.73;;;20.70;55.80;;;;;;5145301;27;45307;-74
2023/08/30 06:56:16;;;;;;;3.53;1.10;;;20.80;55.90;;;;;;5140413;27;45462;-74
2023/08/30 06:58:44;;;;;;;0.80;0.80;;;20.80;55.80;;;;;;5161191;27;46377;-73
2023/08/30 07:01:12;;;;;;;16.45;14.98;;;20.80;55.50;;;;;;5138763;27;45430;-72
2023/08/30 07:03:39;;;;;;;6.55;5.20;;;20.80;55.40;;;;;;5128097;27;45319;-71
2023/08/30 07:06:06;;;;;;;3.58;2.83;;;20.80;54.60;;;;;;5140353;27;45360;-74
2023/08/30 07:08:33;;;;;;;4.10;3.70;;;20.90;54.60;;;;;;5131039;27;45481;-75
2023/08/30 07:11:03;;;;;;;3.45;3.15;;;20.90;55.00;;;;;;5153909;27;45507;-75
2023/08/30 07:13:30;;;;;;;4.22;3.47;;;21.00;55.10;;;;;;5160150;27;45321;-74
2023/08/30 07:15:57;;;;;;;3.28;2.92;;;21.00;54.90;;;;;;5160849;27;45502;-75
2023/08/30 07:18:24;;;;;;;4.25;3.00;;;21.00;54.90;;;;;;5149183;27;46665;-75
2023/08/30 07:20:50;;;;;;;6.03;3.83;;;21.10;54.90;;;;;;5149738;27;45422;-75
2023/08/30 07:23:17;;;;;;;2.85;2.65;;;21.10;55.10;;;;;;5155161;27;45437;-71
2023/08/30 07:25:44;;;;;;;7.00;2.85;;;21.20;54.70;;;;;;5148265;27;45315;-73
2023/08/30 07:28:12;;;;;;;3.38;2.63;;;21.20;54.60;;;;;;5147969;27;46405;-74
2023/08/30 07:30:44;;;;;;;5.72;2.70;;;21.20;54.80;;;;;;5149035;27;45369;-76
2023/08/30 07:33:11;;;;;;;9.07;3.00;;;21.30;55.10;;;;;;5148622;27;45428;-73
2023/08/30 07:35:39;;;;;;;4.57;2.67;;;21.40;54.80;;;;;;5141022;27;45491;-75
2023/08/30 07:38:06;;;;;;;6.93;2.25;;;21.40;54.50;;;;;;5148570;27;46037;-74
2023/08/30 07:40:32;;;;;;;3.92;2.25;;;21.40;54.30;;;;;;5140628;27;45430;-72
2023/08/30 07:42:59;;;;;;;2.53;2.20;;;21.40;54.30;;;;;;5154633;27;45386;-73
2023/08/30 07:45:28;;;;;;;3.05;2.40;;;21.40;54.10;;;;;;5148046;27;45555;-74
2023/08/30 07:47:56;;;;;;;2.15;1.95;;;21.40;54.30;;;;;;5147880;27;45376;-75
2023/08/30 07:50:24;;;;;;;5.88;2.10;;;21.40;54.10;;;;;;5144243;27;45757;-74
2023/08/30 07:52:51;;;;;;;2.47;2.00;;;21.40;54.10;;;;;;5139138;27;45320;-74
2023/08/30 07:55:18;;;;;;;2.58;1.90;;;21.40;54.10;;;;;;5147331;27;45424;-75
2023/08/30 07:57:45;;;;;;;2.45;2.00;;;21.40;54.10;;;;;;5145964;27;45407;-75
2023/08/30 08:00:13;;;;;;;2.60;1.73;;;21.40;54.10;;;;;;5150415;27;45268;-75
2023/08/30 08:02:42;;;;;;;2.10;1.90;;;21.40;54.10;;;;;;5149228;27;45416;-73
2023/08/30 08:05:09;;;;;;;1.92;1.83;;;21.40;54.10;;;;;;5149913;27;45490;-75
2023/08/30 08:07:38;;;;;;;2.83;1.88;;;21.40;54.10;;;;;;5148312;27;46385;-74
2023/08/30 08:10:06;;;;;;;1.80;1.70;;;21.40;54.20;;;;;;5147490;27;45299;-75
2023/08/30 08:12:34;;;;;;;1.95;1.70;;;21.40;54.30;;;;;;5148075;27;45378;-75
2023/08/30 08:15:00;;;;;;;1.65;1.55;;;21.40;54.30;;;;;;5147733;27;45495;-75
2023/08/30 08:17:27;;;;;;;1.70;1.60;;;21.40;54.40;;;;;;5146544;27;46412;-75
2023/08/30 08:19:56;;;;;;;1.63;1.50;;;21.40;54.40;;;;;;5141812;27;45452;-73
2023/08/30 08:22:22;;;;;;;1.95;1.80;;;21.40;54.50;;;;;;5142546;27;45434;-74
2023/08/30 08:24:51;;;;;;;2.00;1.55;;;21.40;54.40;;;;;;5136885;27;45282;-73
2023/08/30 08:27:18;;;;;;;2.65;2.00;;;21.40;54.40;;;;;;5140051;27;45475;-75
2023/08/30 08:29:45;;;;;;;1.60;1.50;;;21.40;54.60;;;;;;5148472;27;45214;-75
2023/08/30 08:32:11;;;;;;;2.00;1.80;;;21.40;54.50;;;;;;5130279;27;45391;-73
2023/08/30 08:34:38;;;;;;;1.88;1.70;;;21.50;54.60;;;;;;5127532;27;45293;-75
2023/08/30 08:37:07;;;;;;;3.05;1.50;;;21.50;54.70;;;;;;5127354;27;46715;-75
2023/08/30 08:39:36;;;;;;;3.08;1.65;;;21.50;54.70;;;;;;5127425;27;45233;-74
2023/08/30 08:42:03;;;;;;;2.13;1.80;;;21.50;54.70;;;;;;5127497;27;45324;-74
2023/08/30 08:44:32;;;;;;;2.13;1.80;;;21.50;54.80;;;;;;5127132;27;45233;-74
2023/08/30 08:46:59;;;;;;;2.55;1.45;;;21.50;54.80;;;;;;5128410;27;45329;-74
2023/08/30 08:49:28;;;;;;;1.42;1.33;;;21.50;54.80;;;;;;5130653;27;45200;-73
2023/08/30 08:51:55;;;;;;;1.80;1.70;;;21.50;54.70;;;;;;5130792;27;45234;-74
2023/08/30 08:54:23;;;;;;;3.25;1.98;;;21.60;54.90;;;;;;5131062;27;45369;-74
2023/08/30 08:56:50;;;;;;;1.70;1.60;;;21.60;55.50;;;;;;5130320;27;46890;-73
2023/08/30 08:59:17;;;;;;;3.20;1.65;;;21.60;54.90;;;;;;5130609;27;45380;-75
2023/08/30 09:01:44;;;;;;;2.63;1.90;;;21.70;54.90;;;;;;5130734;27;45261;-74
2023/08/30 09:04:11;;;;;;;1.73;1.63;;;21.70;54.90;;;;;;5130824;27;45347;-76
2023/08/30 09:06:39;;;;;;;1.95;1.80;;;21.70;54.90;;;;;;5130258;27;45688;-75
2023/08/30 09:09:08;;;;;;;2.05;1.55;;;21.80;54.90;;;;;;5130057;27;45291;-76
2023/08/30 09:11:36;;;;;;;1.70;1.60;;;21.80;55.00;;;;;;5130423;27;45293;-74
2023/08/30 09:14:03;;;;;;;2.45;1.80;;;21.80;55.00;;;;;;5136947;27;45129;-74
2023/08/30 09:16:30;;;;;;;1.85;1.70;;;21.80;55.00;;;;;;5151099;27;47927;-74
2023/08/30 09:19:00;;;;;;;3.45;1.65;;;21.80;55.00;;;;;;5150122;27;45282;-75
2023/08/30 09:21:27;;;;;;;1.92;1.75;;;21.90;55.10;;;;;;5151069;27;45318;-74
2023/08/30 09:24:01;;;;;;;1.50;1.40;;;21.90;55.00;;;;;;5150051;27;45435;-74
2023/08/30 09:26:28;;;;;;;3.63;1.60;;;21.90;55.00;;;;;;5147386;27;45269;-73
2023/08/30 09:28:57;;;;;;;2.75;2.08;;;21.90;55.00;;;;;;5145879;27;45221;-74
2023/08/30 09:31:24;;;;;;;2.50;1.50;;;21.90;54.90;;;;;;5147992;27;45525;-75
2023/08/30 09:33:53;;;;;;;1.40;1.30;;;22.00;55.00;;;;;;5149860;27;45410;-73
2023/08/30 09:36:20;;;;;;;3.47;1.67;;;22.00;55.00;;;;;;5149187;27;46840;-74
2023/08/30 09:38:51;;;;;;;1.50;1.30;;;22.00;54.90;;;;;;5148310;27;45539;-75
2023/08/30 09:41:18;;;;;;;3.90;1.35;;;22.00;54.90;;;;;;5149670;27;45375;-75
2023/08/30 09:43:45;;;;;;;1.70;1.60;;;22.00;55.00;;;;;;5149956;27;45409;-75
2023/08/30 09:46:14;;;;;;;2.03;1.65;;;22.10;55.00;;;;;;5147833;27;45466;-74
2023/08/30 09:48:41;;;;;;;3.15;1.48;;;22.10;55.00;;;;;;5150959;27;45241;-74
2023/08/30 09:51:08;;;;;;;2.78;1.70;;;22.10;54.90;;;;;;5150128;27;45220;-74
2023/08/30 09:53:43;;;;;;;1.50;1.40;;;22.10;54.90;;;;;;5148852;27;45294;-76
2023/08/30 09:56:12;;;;;;;2.10;1.40;;;22.20;55.00;;;;;;5150467;27;45482;-76
2023/08/30 09:58:39;;;;;;;1.38;1.38;;;22.20;55.00;;;;;;5148016;27;45532;-75
2023/08/30 10:01:06;;;;;;;3.80;1.85;;;22.20;54.90;;;;;;5149530;27;45435;-77
2023/08/30 10:03:35;;;;;;;1.27;1.20;;;22.20;54.90;;;;;;5142366;27;45177;-76
2023/08/30 10:06:05;;;;;;;1.60;1.50;;;22.30;54.90;;;;;;5147179;27;45671;-76
2023/08/30 10:08:32;;;;;;;1.45;1.15;;;22.40;54.90;;;;;;5150646;27;45274;-76
2023/08/30 10:11:00;;;;;;;2.45;1.70;;;22.40;54.80;;;;;;5150797;27;45186;-77
2023/08/30 10:13:27;;;;;;;2.97;1.80;;;22.40;54.80;;;;;;5151021;27;45369;-76
2023/08/30 10:15:59;;;;;;;4.13;1.40;;;22.40;54.80;;;;;;5150336;27;45323;-76
2023/08/30 10:18:27;;;;;;;1.70;1.60;;;22.50;54.80;;;;;;5149473;27;45473;-75
2023/08/30 10:20:55;;;;;;;2.53;1.50;;;22.50;54.80;;;;;;5150481;27;45260;-77
2023/08/30 10:23:22;;;;;;;1.45;1.35;;;22.50;54.70;;;;;;5149556;27;45444;-76
2023/08/30 10:25:49;;;;;;;3.50;1.40;;;22.60;54.60;;;;;;5149724;27;45238;-76
2023/08/30 10:28:16;;;;;;;1.60;1.50;;;22.60;54.60;;;;;;5149822;27;45320;-76
2023/08/30 10:30:43;;;;;;;1.40;1.30;;;22.60;54.50;;;;;;5150479;27;45210;-76
2023/08/30 10:33:13;;;;;;;1.70;1.60;;;22.60;54.40;;;;;;5150148;27;45478;-77
2023/08/30 10:35:48;;;;;;;1.75;1.48;;;22.70;54.50;;;;;;5150044;27;45266;-76
2023/08/30 10:38:25;;;;;;;2.25;1.38;;;22.70;54.50;;;;;;5132134;27;45435;-76
2023/08/30 10:40:52;;;;;;;3.42;1.48;;;22.70;54.30;;;;;;5150334;27;45256;-75
2023/08/30 10:43:29;;;;;;;1.30;1.20;;;22.80;54.30;;;;;;5149247;27;45430;-76
2023/08/30 10:46:01;;;;;;;1.35;1.30;;;22.80;54.00;;;;;;5146237;27;45532;-75
2023/08/30 10:48:35;;;;;;;1.52;1.42;;;22.90;54.10;;;;;;5143690;27;45176;-76
2023/08/30 10:51:04;;;;;;;3.30;1.67;;;22.90;53.90;;;;;;5149983;27;45217;-74
2023/08/30 10:53:32;;;;;;;1.52;1.42;;;22.90;53.90;;;;;;5150084;27;45607;-75
2023/08/30 10:56:10;;;;;;;2.35;1.23;;;23.00;53.90;;;;;;5149890;27;45874;-74
2023/08/30 10:58:42;;;;;;;1.00;1.00;;;23.00;53.80;;;;;;5148162;27;45464;-74
2023/08/30 11:01:10;;;;;;;1.40;1.30;;;23.10;53.70;;;;;;5149687;27;45249;-74
2023/08/30 11:03:37;;;;;;;1.38;1.27;;;23.20;53.60;;;;;;5151322;27;45169;-74
2023/08/30 11:06:04;;;;;;;1.27;1.17;;;23.20;53.30;;;;;;5142336;27;45421;-75
2023/08/30 11:08:35;;;;;;;1.40;1.30;;;23.20;53.20;;;;;;5135911;27;44776;-76
2023/08/30 11:11:03;;;;;;;2.50;1.38;;;23.30;53.20;;;;;;5134355;27;44803;-77
2023/08/30 11:13:30;;;;;;;1.52;1.35;;;23.40;53.20;;;;;;5133284;27;45312;-77
2023/08/30 11:16:02;;;;;;;1.50;1.40;;;23.50;53.00;;;;;;5128393;27;46288;-76
2023/08/30 11:18:29;;;;;;;1.63;1.45;;;23.50;52.90;;;;;;5144534;27;45516;-76
2023/08/30 11:21:00;;;;;;;2.45;1.52;;;23.50;52.90;;;;;;5145512;27;45437;-75
2023/08/30 11:23:26;;;;;;;1.67;1.40;;;23.70;53.00;;;;;;5141558;27;45568;-75
2023/08/30 11:25:55;;;;;;;1.50;1.40;;;23.70;52.40;;;;;;5133842;27;46294;-76
2023/08/30 11:28:24;;;;;;;4.00;1.70;;;23.70;52.40;;;;;;5132635;27;45276;-74
2023/08/30 11:30:54;;;;;;;3.42;1.75;;;23.70;52.70;;;;;;5128561;27;45249;-74
2023/08/30 11:33:21;;;;;;;2.70;1.83;;;23.70;52.70;;;;;;5134767;27;45316;-75
2023/08/30 11:35:50;;;;;;;4.25;1.67;;;23.70;52.60;;;;;;5143095;27;46657;-75
2023/08/30 11:38:17;;;;;;;4.32;1.88;;;23.70;52.80;;;;;;5133542;27;45293;-76
2023/08/30 11:40:44;;;;;;;3.22;1.50;;;23.90;52.60;;;;;;5150855;27;45358;-75
2023/08/30 11:43:12;;;;;;;4.25;1.73;;;24.00;52.00;;;;;;5137944;27;45225;-75
2023/08/30 11:45:39;;;;;;;2.58;1.60;;;24.10;51.70;;;;;;5128796;27;46903;-76
2023/08/30 11:48:06;;;;;;;1.50;1.40;;;24.10;51.50;;;;;;5145737;27;45246;-76
2023/08/30 11:50:34;;;;;;;2.28;1.75;;;24.20;51.70;;;;;;5149257;27;45282;-76
2023/08/30 11:53:01;;;;;;;1.75;1.63;;;24.20;51.30;;;;;;5146976;27;45285;-76
2023/08/30 11:55:27;;;;;;;1.50;1.38;;;24.30;50.90;;;;;;5148418;27;46483;-77
2023/08/30 11:57:54;;;;;;;1.55;1.45;;;24.30;50.90;;;;;;5135443;27;45285;-77
2023/08/30 12:00:24;;;;;;;3.15;1.70;;;24.40;50.90;;;;;;5128290;27;45226;-76
2023/08/30 12:02:51;;;;;;;2.78;1.50;;;24.50;50.80;;;;;;5128975;27;45350;-76
2023/08/30 12:05:18;;;;;;;1.83;1.73;;;24.50;50.20;;;;;;5143864;27;46848;-78
2023/08/30 12:07:46;;;;;;;1.95;1.42;;;24.60;50.00;;;;;;5128103;27;45192;-79
2023/08/30 12:10:14;;;;;;;3.60;1.70;;;24.70;50.10;;;;;;5129529;27;45408;-77
2023/08/30 12:12:45;;;;;;;1.92;1.40;;;24.70;49.90;;;;;;5128135;27;45269;-76
2023/08/30 12:15:13;;;;;;;1.50;1.27;;;24.80;50.50;;;;;;5127823;27;48739;-77
2023/08/30 12:17:41;;;;;;;1.70;1.60;;;24.90;50.50;;;;;;5127203;27;45355;-77
2023/08/30 12:20:15;;;;;;;1.90;1.40;;;25.00;49.80;;;;;;5127163;27;45370;-77
2023/08/30 12:22:42;;;;;;;1.42;1.30;;;25.00;49.90;;;;;;5147676;27;45347;-77
2023/08/30 12:25:17;;;;;;;2.55;1.35;;;25.00;49.90;;;;;;5150664;27;45395;-78
2023/08/30 12:27:44;;;;;;;2.33;1.20;;;25.00;50.40;;;;;;5150258;27;45326;-77
2023/08/30 12:30:11;;;;;;;1.30;1.20;;;25.10;50.20;;;;;;5152352;27;45316;-78
2023/08/30 12:32:38;;;;;;;3.78;1.33;;;25.20;49.50;;;;;;5153017;27;45580;-76
2023/08/30 12:35:07;;;;;;;2.45;1.30;;;25.30;49.20;;;;;;5144559;27;45562;-77
2023/08/30 12:37:34;;;;;;;1.45;1.27;;;25.20;48.90;;;;;;5156983;27;44736;-77
2023/08/30 12:40:01;;;;;;;1.30;1.30;;;25.10;49.40;;;;;;5153565;27;45360;-76
2023/08/30 12:42:28;;;;;;;1.67;1.35;;;25.00;49.80;;;;;;5158695;27;45407;-76
2023/08/30 12:44:55;;;;;;;1.63;1.38;;;24.90;51.00;;;;;;5159336;27;45420;-74
2023/08/30 12:47:22;;;;;;;2.35;1.67;;;24.90;50.60;;;;;;5152510;27;45337;-78
2023/08/30 12:49:48;;;;;;;1.85;1.63;;;24.90;51.30;;;;;;5152452;27;45324;-77